Time;durP1;ratioP1;P1;durP2;ratioP2;P2;SDS_P1;SDS_P2;PMS_P1;PMS_P2;Temp;Humidity;BMP_temperature;BMP_pressure;BME280_temperature;BME280_humidity;BME280_pressure;Samples;Min_cycle;Max_cycle;Signal;HPM_P1;HPM_P2
2023/06/27 00:00:46;;;;;;;21.80;20.50;;;;;;;;;;5092224;28;20518;-77
2023/06/27 00:03:13;;;;;;;23.57;21.93;;;;;;;;;;5092245;28;20470;-77
2023/06/27 00:05:40;;;;;;;22.17;20.70;;;;;;;;;;5091680;28;20445;-77
2023/06/27 00:08:07;;;;;;;22.63;21.23;;;;;;;;;;5092826;28;20492;-78
2023/06/27 00:10:34;;;;;;;22.80;21.50;;;;;;;;;;5092558;28;20489;-77
2023/06/27 00:13:03;;;;;;;21.93;20.73;;;;;;;;;;5091929;28;20921;-77
2023/06/27 00:15:34;;;;;;;21.90;20.50;;;;;;;;;;5091511;28;20522;-77
2023/06/27 00:18:08;;;;;;;22.20;21.00;;;;;;;;;;5092658;28;20581;-77
2023/06/27 00:20:35;;;;;;;22.00;20.80;;;;;;;;;;5092285;28;20446;-76
2023/06/27 00:23:16;;;;;;;22.40;21.20;;;;;;;;;;5092083;28;20449;-78
2023/06/27 00:25:44;;;;;;;22.33;21.03;;;;;;;;;;5091513;28;21129;-77
2023/06/27 00:28:12;;;;;;;23.00;21.60;;;;;;;;;;5092437;28;20458;-77
2023/06/27 00:30:39;;;;;;;22.10;20.60;;;;;;;;;;5092301;28;20448;-78
2023/06/27 00:33:06;;;;;;;22.60;21.20;;;;;;;;;;5092761;28;20420;-77
2023/06/27 00:35:33;;;;;;;21.20;19.93;;;;;;;;;;5091794;28;20857;-77
2023/06/27 00:38:00;;;;;;;22.17;20.97;;;;;;;;;;5091500;28;21025;-77
2023/06/27 00:40:27;;;;;;;22.83;21.43;;;;;;;;;;5092576;28;20502;-78
2023/06/27 00:42:54;;;;;;;23.37;21.33;;;;;;;;;;5096425;28;20605;-76
2023/06/27 00:45:23;;;;;;;22.43;21.13;;;;;;;;;;5096328;28;20453;-77
2023/06/27 00:47:50;;;;;;;22.10;20.90;;;;;;;;;;5095472;28;20455;-77
2023/06/27 00:50:17;;;;;;;22.13;20.73;;;;;;;;;;5095537;28;20463;-78
2023/06/27 00:52:45;;;;;;;22.00;20.50;;;;;;;;;;5096151;28;20954;-77
2023/06/27 00:55:12;;;;;;;21.83;20.73;;;;;;;;;;5096043;28;20514;-77
2023/06/27 00:57:40;;;;;;;22.10;20.90;;;;;;;;;;5094974;28;20431;-76
2023/06/27 01:00:09;;;;;;;22.37;21.17;;;;;;;;;;5095784;28;20555;-77
2023/06/27 01:02:37;;;;;;;21.73;20.60;;;;;;;;;;5095830;28;20835;-77
2023/06/27 01:05:05;;;;;;;22.77;20.70;;;;;;;;;;5095762;28;20455;-77
2023/06/27 01:07:34;;;;;;;22.20;20.90;;;;;;;;;;5094423;28;20538;-77
2023/06/27 01:10:04;;;;;;;22.47;21.17;;;;;;;;;;5095308;28;20487;-76
2023/06/27 01:12:34;;;;;;;22.73;21.40;;;;;;;;;;5095388;28;20506;-77
2023/06/27 01:15:01;;;;;;;22.97;21.33;;;;;;;;;;5095329;28;20893;-77
2023/06/27 01:17:32;;;;;;;22.20;20.73;;;;;;;;;;5094368;28;20456;-77
2023/06/27 01:20:02;;;;;;;23.00;21.30;;;;;;;;;;5095054;28;20493;-78
2023/06/27 01:22:32;;;;;;;22.73;21.33;;;;;;;;;;5095817;28;20444;-77
2023/06/27 01:25:02;;;;;;;22.93;21.33;;;;;;;;;;5095284;28;20449;-77
2023/06/27 01:27:29;;;;;;;22.40;21.10;;;;;;;;;;5095000;28;21159;-77
2023/06/27 01:29:57;;;;;;;22.60;21.30;;;;;;;;;;5094375;28;20491;-77
2023/06/27 01:32:26;;;;;;;23.87;22.00;;;;;;;;;;5095202;28;20417;-77
2023/06/27 01:35:02;;;;;;;22.87;21.60;;;;;;;;;;5095432;28;20422;-76
2023/06/27 01:37:31;;;;;;;22.67;21.30;;;;;;;;;;5094684;28;20965;-76
2023/06/27 01:39:59;;;;;;;22.37;21.10;;;;;;;;;;5094452;28;20522;-77
2023/06/27 01:42:29;;;;;;;22.97;21.37;;;;;;;;;;5095169;28;20432;-77
2023/06/27 01:44:57;;;;;;;22.90;21.60;;;;;;;;;;5094683;28;20423;-77
2023/06/27 01:47:24;;;;;;;21.80;20.60;;;;;;;;;;5094210;28;20449;-77
2023/06/27 01:49:52;;;;;;;22.73;21.20;;;;;;;;;;5094828;28;20498;-77
2023/06/27 01:52:20;;;;;;;22.47;21.17;;;;;;;;;;5093976;28;20501;-77
2023/06/27 01:54:47;;;;;;;23.37;21.87;;;;;;;;;;5094836;28;20435;-77
2023/06/27 01:57:14;;;;;;;23.00;21.60;;;;;;;;;;5093517;28;20443;-77
2023/06/27 01:59:42;;;;;;;23.33;21.87;;;;;;;;;;5094695;28;20502;-78
2023/06/27 02:02:09;;;;;;;22.33;20.97;;;;;;;;;;5094280;28;20428;-76
2023/06/27 02:04:36;;;;;;;23.10;21.47;;;;;;;;;;5094122;28;20430;-77
2023/06/27 02:07:03;;;;;;;23.03;21.63;;;;;;;;;;5092892;28;20450;-77
2023/06/27 02:09:30;;;;;;;21.57;20.47;;;;;;;;;;5093821;28;21053;-76
2023/06/27 02:11:57;;;;;;;23.37;21.97;;;;;;;;;;5093850;28;20454;-77
2023/06/27 02:14:24;;;;;;;23.00;21.50;;;;;;;;;;5093749;28;20783;-76
2023/06/27 02:16:53;;;;;;;23.50;21.90;;;;;;;;;;5093168;28;20439;-76
2023/06/27 02:19:20;;;;;;;22.70;21.40;;;;;;;;;;5093950;28;20434;-77
2023/06/27 02:21:49;;;;;;;21.73;20.60;;;;;;;;;;5094067;28;20479;-77
2023/06/27 02:24:16;;;;;;;22.40;20.80;;;;;;;;;;5094208;28;20427;-77
2023/06/27 02:26:43;;;;;;;24.50;22.77;;;;;;;;;;5093122;28;20949;-77
2023/06/27 02:29:11;;;;;;;21.57;20.43;;;;;;;;;;5092989;28;20485;-76
2023/06/27 02:31:38;;;;;;;22.03;20.50;;;;;;;;;;5093813;28;20464;-76
2023/06/27 02:34:07;;;;;;;22.63;21.10;;;;;;;;;;5093756;28;20830;-76
2023/06/27 02:36:34;;;;;;;23.30;21.70;;;;;;;;;;5093349;28;20444;-76
2023/06/27 02:39:01;;;;;;;22.30;20.90;;;;;;;;;;5093916;28;20444;-77
2023/06/27 02:41:28;;;;;;;22.40;21.00;;;;;;;;;;5093055;28;20959;-77
2023/06/27 02:43:55;;;;;;;22.00;20.57;;;;;;;;;;5093792;28;20494;-76
2023/06/27 02:46:22;;;;;;;21.90;20.60;;;;;;;;;;5093116;28;20526;-76
2023/06/27 02:48:49;;;;;;;21.93;20.20;;;;;;;;;;5093587;28;20503;-76
2023/06/27 02:51:18;;;;;;;22.97;21.67;;;;;;;;;;5092701;28;20456;-76
2023/06/27 02:53:45;;;;;;;21.50;20.30;;;;;;;;;;5092861;28;20407;-77
2023/06/27 02:56:12;;;;;;;22.73;21.27;;;;;;;;;;5092330;28;20953;-76
2023/06/27 02:58:39;;;;;;;21.43;20.00;;;;;;;;;;5093178;28;20444;-77
2023/06/27 03:01:07;;;;;;;21.33;19.93;;;;;;;;;;5092868;28;20443;-76
2023/06/27 03:03:34;;;;;;;21.70;20.30;;;;;;;;;;5092474;28;20444;-77
2023/06/27 03:06:02;;;;;;;21.47;20.10;;;;;;;;;;5092025;28;20444;-77
2023/06/27 03:08:31;;;;;;;21.27;20.13;;;;;;;;;;5092497;28;20466;-76
2023/06/27 03:10:58;;;;;;;20.90;19.60;;;;;;;;;;5092932;28;20450;-77
2023/06/27 03:13:25;;;;;;;21.70;20.50;;;;;;;;;;5092998;28;20469;-77
2023/06/27 03:15:52;;;;;;;21.67;20.37;;;;;;;;;;5092268;28;20514;-76
2023/06/27 03:18:19;;;;;;;23.20;21.57;;;;;;;;;;5092367;28;20455;-76
2023/06/27 03:20:46;;;;;;;22.50;20.70;;;;;;;;;;5092655;28;20879;-77
2023/06/27 03:23:13;;;;;;;21.00;19.90;;;;;;;;;;5092628;28;20426;-75
2023/06/27 03:25:42;;;;;;;22.57;20.83;;;;;;;;;;5091886;28;20475;-76
2023/06/27 03:28:09;;;;;;;21.47;20.00;;;;;;;;;;5092457;28;20430;-75
2023/06/27 03:30:38;;;;;;;22.60;21.00;;;;;;;;;;5091930;28;20470;-75
2023/06/27 03:33:05;;;;;;;21.57;20.33;;;;;;;;;;5092703;28;20475;-76
2023/06/27 03:35:32;;;;;;;21.93;20.23;;;;;;;;;;5091672;28;21156;-77
2023/06/27 03:37:59;;;;;;;22.20;20.90;;;;;;;;;;5092466;28;20452;-77
2023/06/27 03:40:26;;;;;;;21.70;20.37;;;;;;;;;;5092193;28;20524;-75
2023/06/27 03:42:55;;;;;;;22.23;20.60;;;;;;;;;;5091772;28;20975;-76
2023/06/27 03:45:22;;;;;;;23.03;21.43;;;;;;;;;;5092266;28;20486;-76
2023/06/27 03:47:50;;;;;;;22.67;21.00;;;;;;;;;;5091670;28;20428;-76
2023/06/27 03:50:17;;;;;;;21.60;20.30;;;;;;;;;;5092089;28;20465;-76
2023/06/27 03:52:44;;;;;;;21.70;20.30;;;;;;;;;;5091337;28;20446;-76
2023/06/27 03:55:12;;;;;;;22.60;21.10;;;;;;;;;;5092432;28;20471;-76
2023/06/27 03:57:39;;;;;;;22.37;20.87;;;;;;;;;;5091720;28;20501;-76
2023/06/27 04:00:10;;;;;;;22.43;21.03;;;;;;;;;;5092171;28;20485;-76
2023/06/27 04:02:37;;;;;;;21.70;20.20;;;;;;;;;;5091727;28;20516;-76
2023/06/27 04:05:05;;;;;;;21.90;20.43;;;;;;;;;;5092054;28;20482;-76
2023/06/27 04:07:32;;;;;;;22.20;20.93;;;;;;;;;;5091334;28;20931;-77
2023/06/27 04:09:59;;;;;;;22.53;21.03;;;;;;;;;;5092105;28;20493;-75
2023/06/27 04:12:26;;;;;;;21.43;20.10;;;;;;;;;;5092214;28;20480;-76
2023/06/27 04:14:53;;;;;;;21.30;20.00;;;;;;;;;;5092353;28;20430;-76
2023/06/27 04:17:21;;;;;;;21.30;19.93;;;;;;;;;;5094445;28;20507;-77
2023/06/27 04:19:48;;;;;;;21.80;20.33;;;;;;;;;;5095941;28;20481;-76
2023/06/27 04:22:15;;;;;;;22.00;20.70;;;;;;;;;;5096078;28;20430;-76
2023/06/27 04:24:42;;;;;;;22.03;20.70;;;;;;;;;;5096167;28;20460;-77
2023/06/27 04:27:09;;;;;;;22.10;20.10;;;;;;;;;;5095244;28;20448;-77
2023/06/27 04:29:36;;;;;;;21.90;20.60;;;;;;;;;;5095908;28;20474;-77
2023/06/27 04:32:03;;;;;;;21.73;20.00;;;;;;;;;;5095943;28;20497;-77
2023/06/27 04:34:35;;;;;;;22.27;20.97;;;;;;;;;;5095724;28;20426;-76
2023/06/27 04:37:03;;;;;;;21.97;20.37;;;;;;;;;;5095647;28;20480;-77
2023/06/27 04:39:29;;;;;;;22.50;20.80;;;;;;;;;;5095787;28;20440;-76
2023/06/27 04:41:57;;;;;;;21.20;20.00;;;;;;;;;;5094937;28;20500;-76
2023/06/27 04:44:24;;;;;;;21.83;20.50;;;;;;;;;;5095864;28;20454;-77
2023/06/27 04:46:51;;;;;;;22.53;21.10;;;;;;;;;;5095164;28;20531;-76
2023/06/27 04:49:18;;;;;;;21.70;20.30;;;;;;;;;;5095709;28;20466;-75
2023/06/27 04:51:46;;;;;;;23.90;22.00;;;;;;;;;;5094892;28;20454;-76
2023/06/27 04:54:13;;;;;;;22.40;20.90;;;;;;;;;;5095000;28;20801;-76
2023/06/27 04:56:40;;;;;;;22.97;21.47;;;;;;;;;;5094932;28;20443;-77
2023/06/27 04:59:07;;;;;;;22.20;20.73;;;;;;;;;;5095283;28;20485;-77
2023/06/27 05:01:34;;;;;;;22.67;21.20;;;;;;;;;;5095000;28;20522;-76
2023/06/27 05:04:04;;;;;;;22.50;21.13;;;;;;;;;;5095360;28;20449;-76
2023/06/27 05:06:31;;;;;;;23.13;21.83;;;;;;;;;;5093336;28;20532;-76
2023/06/27 05:09:01;;;;;;;23.20;21.80;;;;;;;;;;5093735;28;20487;-77
2023/06/27 05:11:28;;;;;;;22.80;21.47;;;;;;;;;;5093498;28;20454;-76
2023/06/27 05:13:55;;;;;;;23.00;21.40;;;;;;;;;;5094857;28;20424;-76
2023/06/27 05:16:22;;;;;;;22.50;21.10;;;;;;;;;;5094258;28;20434;-76
2023/06/27 05:18:49;;;;;;;25.13;23.27;;;;;;;;;;5095102;28;20456;-76
2023/06/27 05:21:16;;;;;;;22.80;21.30;;;;;;;;;;5093770;28;21031;-76
2023/06/27 05:23:43;;;;;;;24.23;22.53;;;;;;;;;;5094742;28;21271;-76
2023/06/27 05:26:11;;;;;;;22.97;21.57;;;;;;;;;;5093970;28;20521;-76
2023/06/27 05:28:39;;;;;;;22.93;21.43;;;;;;;;;;5094738;28;20448;-77
2023/06/27 05:31:06;;;;;;;23.50;21.63;;;;;;;;;;5093577;28;20838;-75
2023/06/27 05:33:32;;;;;;;22.67;21.17;;;;;;;;;;5094422;28;20827;-76
2023/06/27 05:35:59;;;;;;;23.30;21.40;;;;;;;;;;5094533;28;20994;-76
2023/06/27 05:38:26;;;;;;;23.03;21.50;;;;;;;;;;5094932;28;20444;-76
2023/06/27 05:40:53;;;;;;;23.27;21.77;;;;;;;;;;5093687;28;20502;-77
2023/06/27 05:43:22;;;;;;;23.37;21.57;;;;;;;;;;5094355;28;20420;-76
2023/06/27 05:45:49;;;;;;;22.80;21.30;;;;;;;;;;5094314;28;20510;-76
2023/06/27 05:48:16;;;;;;;23.40;21.80;;;;;;;;;;5094247;28;20448;-76
2023/06/27 05:50:43;;;;;;;22.53;21.10;;;;;;;;;;5093827;28;20495;-76
2023/06/27 05:53:10;;;;;;;24.00;22.40;;;;;;;;;;5094164;28;20461;-76
2023/06/27 05:55:37;;;;;;;24.10;22.40;;;;;;;;;;5093679;28;20420;-77
2023/06/27 05:58:04;;;;;;;23.57;22.07;;;;;;;;;;5093065;28;20415;-77
2023/06/27 06:00:33;;;;;;;23.10;21.60;;;;;;;;;;5093656;28;20493;-78
2023/06/27 06:03:00;;;;;;;22.93;21.33;;;;;;;;;;5093383;28;20468;-76
2023/06/27 06:05:27;;;;;;;25.73;23.60;;;;;;;;;;5094246;28;20427;-76
2023/06/27 06:07:54;;;;;;;24.73;23.00;;;;;;;;;;5093712;28;20411;-76
2023/06/27 06:10:21;;;;;;;24.10;22.37;;;;;;;;;;5093833;28;20868;-76
2023/06/27 06:12:49;;;;;;;24.13;22.33;;;;;;;;;;5093777;28;20448;-76
2023/06/27 06:15:15;;;;;;;24.23;22.63;;;;;;;;;;5094093;28;20472;-76
2023/06/27 06:17:44;;;;;;;23.27;21.77;;;;;;;;;;5092372;28;20439;-76
2023/06/27 06:20:11;;;;;;;24.77;22.77;;;;;;;;;;5093103;28;20484;-76
2023/06/27 06:22:39;;;;;;;23.97;22.37;;;;;;;;;;5092905;28;20817;-76
2023/06/27 06:25:07;;;;;;;24.20;22.30;;;;;;;;;;5092937;28;20452;-76
2023/06/27 06:27:34;;;;;;;24.00;22.30;;;;;;;;;;5091922;28;20482;-77
2023/06/27 06:30:01;;;;;;;23.90;22.30;;;;;;;;;;5093112;28;20993;-76
2023/06/27 06:32:28;;;;;;;23.23;21.73;;;;;;;;;;5093345;28;20788;-76
2023/06/27 06:34:56;;;;;;;23.90;22.40;;;;;;;;;;5093776;28;20426;-76
2023/06/27 06:37:23;;;;;;;24.37;22.73;;;;;;;;;;5092967;28;20492;-77
2023/06/27 06:39:50;;;;;;;23.73;21.67;;;;;;;;;;5092297;28;20510;-75
2023/06/27 06:42:17;;;;;;;23.80;22.00;;;;;;;;;;5093287;28;20437;-76
2023/06/27 06:44:44;;;;;;;24.87;23.07;;;;;;;;;;5093067;28;20477;-77
2023/06/27 06:47:11;;;;;;;23.00;21.30;;;;;;;;;;5092853;28;20856;-76
2023/06/27 06:49:38;;;;;;;24.80;22.73;;;;;;;;;;5093103;28;20482;-76
2023/06/27 06:52:07;;;;;;;24.37;22.37;;;;;;;;;;5093271;28;20481;-76
2023/06/27 06:54:34;;;;;;;23.43;21.90;;;;;;;;;;5093097;28;20945;-76
2023/06/27 06:57:01;;;;;;;23.70;21.87;;;;;;;;;;5092157;28;20832;-75
2023/06/27 06:59:28;;;;;;;24.33;22.57;;;;;;;;;;5092960;28;20502;-76
2023/06/27 07:01:55;;;;;;;24.17;22.50;;;;;;;;;;5093167;28;20447;-77
2023/06/27 07:04:22;;;;;;;25.13;23.10;;;;;;;;;;5093070;28;20452;-75
2023/06/27 07:06:49;;;;;;;24.63;22.83;;;;;;;;;;5092664;28;20469;-76
2023/06/27 07:09:17;;;;;;;23.70;21.90;;;;;;;;;;5093062;28;20459;-76
2023/06/27 07:11:44;;;;;;;25.47;23.47;;;;;;;;;;5092270;28;20530;-77
2023/06/27 07:14:12;;;;;;;24.10;22.20;;;;;;;;;;5093158;28;20449;-77
2023/06/27 07:16:39;;;;;;;25.27;23.20;;;;;;;;;;5091885;28;20849;-74
2023/06/27 07:19:06;;;;;;;24.80;23.30;;;;;;;;;;5092851;28;20517;-74
2023/06/27 07:21:34;;;;;;;24.57;22.77;;;;;;;;;;5091651;28;20468;-73
2023/06/27 07:24:01;;;;;;;25.13;23.23;;;;;;;;;;5092323;28;20427;-76
2023/06/27 07:26:30;;;;;;;23.93;22.10;;;;;;;;;;5092418;28;20423;-79
2023/06/27 07:28:57;;;;;;;23.60;21.90;;;;;;;;;;5092927;28;20419;-77
2023/06/27 07:31:24;;;;;;;24.83;22.93;;;;;;;;;;5092542;28;20451;-76
2023/06/27 07:33:51;;;;;;;24.43;22.40;;;;;;;;;;5092564;28;20533;-76
2023/06/27 07:36:18;;;;;;;23.97;22.47;;;;;;;;;;5092042;28;20502;-76
2023/06/27 07:38:45;;;;;;;24.53;22.80;;;;;;;;;;5092118;28;20436;-81
2023/06/27 07:41:12;;;;;;;22.53;21.13;;;;;;;;;;5092787;28;20473;-77
2023/06/27 07:43:40;;;;;;;24.57;22.97;;;;;;;;;;5093388;28;20443;-82
2023/06/27 07:46:07;;;;;;;23.60;21.47;;;;;;;;;;5092000;28;20473;-77
2023/06/27 07:48:34;;;;;;;24.57;22.47;;;;;;;;;;5092856;28;20423;-76
2023/06/27 07:51:02;;;;;;;23.10;21.60;;;;;;;;;;5091573;28;21014;-78
2023/06/27 07:53:29;;;;;;;24.13;22.30;;;;;;;;;;5093454;28;20427;-79
2023/06/27 07:55:56;;;;;;;24.13;22.57;;;;;;;;;;5093034;28;20551;-77
2023/06/27 07:58:23;;;;;;;23.80;22.20;;;;;;;;;;5092949;28;20477;-77
2023/06/27 08:00:53;;;;;;;22.70;20.90;;;;;;;;;;5091939;28;20487;-76
2023/06/27 08:03:20;;;;;;;23.90;22.30;;;;;;;;;;5090763;28;20468;-76
2023/06/27 08:05:47;;;;;;;23.57;21.60;;;;;;;;;;5092111;28;20427;-77
2023/06/27 08:08:14;;;;;;;23.53;21.70;;;;;;;;;;5092164;28;20431;-74
2023/06/27 08:10:41;;;;;;;23.43;21.87;;;;;;;;;;5092024;28;20579;-75
2023/06/27 08:13:08;;;;;;;23.10;21.40;;;;;;;;;;5091577;28;20439;-75
2023/06/27 08:15:35;;;;;;;22.53;21.03;;;;;;;;;;5091604;28;20466;-75
2023/06/27 08:18:04;;;;;;;23.57;21.67;;;;;;;;;;5092276;28;20482;-75
2023/06/27 08:20:31;;;;;;;22.10;20.60;;;;;;;;;;5092038;28;20514;-75
2023/06/27 08:22:58;;;;;;;22.40;20.73;;;;;;;;;;5093112;28;20514;-86
2023/06/27 08:25:25;;;;;;;23.40;21.80;;;;;;;;;;5094639;28;20478;-79
2023/06/27 08:27:52;;;;;;;23.13;21.40;;;;;;;;;;5094816;28;20457;-82
2023/06/27 08:30:19;;;;;;;23.00;21.33;;;;;;;;;;5094484;28;20459;-80
2023/06/27 08:32:46;;;;;;;22.53;21.23;;;;;;;;;;5095514;28;20506;-82
2023/06/27 08:35:15;;;;;;;23.33;21.73;;;;;;;;;;5094649;28;20969;-81
2023/06/27 08:37:42;;;;;;;23.00;21.30;;;;;;;;;;5094338;28;20838;-81
2023/06/27 08:40:10;;;;;;;22.00;20.70;;;;;;;;;;5093859;28;20531;-75
2023/06/27 08:42:37;;;;;;;23.67;22.03;;;;;;;;;;5091669;28;20445;-74
2023/06/27 08:45:04;;;;;;;23.30;21.70;;;;;;;;;;5091656;28;20839;-75
2023/06/27 08:47:31;;;;;;;23.40;22.00;;;;;;;;;;5091322;28;20760;-75
2023/06/27 08:50:03;;;;;;;28.23;23.63;;;;;;;;;;5091003;28;20451;-73
2023/06/27 08:52:33;;;;;;;22.47;21.07;;;;;;;;;;5091535;28;20451;-74
2023/06/27 08:55:01;;;;;;;22.60;21.20;;;;;;;;;;5091560;28;20419;-74
2023/06/27 08:57:31;;;;;;;23.03;21.57;;;;;;;;;;5090325;28;20536;-76
2023/06/27 09:00:04;;;;;;;23.77;22.30;;;;;;;;;;5091456;28;20976;-75
2023/06/27 09:02:31;;;;;;;23.90;22.20;;;;;;;;;;5093424;28;20486;-76
2023/06/27 09:04:59;;;;;;;23.27;21.63;;;;;;;;;;5096153;28;20461;-75
2023/06/27 09:07:26;;;;;;;23.00;21.30;;;;;;;;;;5095261;28;20460;-76
2023/06/27 09:09:55;;;;;;;23.60;21.90;;;;;;;;;;5095699;28;20423;-74
2023/06/27 09:12:22;;;;;;;23.40;21.90;;;;;;;;;;5095502;28;20508;-76
2023/06/27 09:14:49;;;;;;;24.13;22.43;;;;;;;;;;5095816;28;20445;-75
2023/06/27 09:17:16;;;;;;;24.97;23.23;;;;;;;;;;5094573;28;20443;-75
2023/06/27 09:19:43;;;;;;;23.67;22.13;;;;;;;;;;5095582;28;20498;-76
2023/06/27 09:22:10;;;;;;;23.97;22.30;;;;;;;;;;5095148;28;20439;-76
2023/06/27 09:24:40;;;;;;;24.20;22.20;;;;;;;;;;5098790;28;20420;-83
2023/06/27 09:27:09;;;;;;;24.70;23.03;;;;;;;;;;5098921;28;20419;-81
2023/06/27 09:29:37;;;;;;;23.77;22.00;;;;;;;;;;5099241;28;20863;-83
2023/06/27 09:32:07;;;;;;;23.70;21.73;;;;;;;;;;5099735;28;21021;-82
2023/06/27 09:34:35;;;;;;;23.30;21.60;;;;;;;;;;5100072;28;20490;-81
2023/06/27 09:37:02;;;;;;;23.60;22.10;;;;;;;;;;5099880;28;20458;-84
2023/06/27 09:39:30;;;;;;;24.60;22.73;;;;;;;;;;5098855;28;20516;-83
2023/06/27 09:41:56;;;;;;;23.73;22.03;;;;;;;;;;5098103;28;20514;-77
2023/06/27 09:44:25;;;;;;;24.77;22.80;;;;;;;;;;5095121;28;20577;-76
2023/06/27 09:46:53;;;;;;;25.10;23.17;;;;;;;;;;5094578;28;20431;-76
2023/06/27 09:49:24;;;;;;;24.17;22.47;;;;;;;;;;5094822;28;20452;-77
2023/06/27 09:51:52;;;;;;;24.43;22.57;;;;;;;;;;5094067;28;21064;-76
2023/06/27 09:54:21;;;;;;;23.87;22.27;;;;;;;;;;5094637;28;20522;-75
2023/06/27 09:56:50;;;;;;;23.60;21.63;;;;;;;;;;5094187;28;20453;-75
2023/06/27 09:59:17;;;;;;;24.77;22.97;;;;;;;;;;5092847;28;20465;-75
2023/06/27 10:01:47;;;;;;;24.80;23.03;;;;;;;;;;5093861;28;20823;-75
2023/06/27 10:04:14;;;;;;;25.63;23.93;;;;;;;;;;5094103;28;20424;-75
2023/06/27 10:06:41;;;;;;;23.50;21.90;;;;;;;;;;5093689;28;20453;-74
2023/06/27 10:09:09;;;;;;;23.00;21.50;;;;;;;;;;5095496;28;20448;-80
2023/06/27 10:11:37;;;;;;;24.30;22.50;;;;;;;;;;5096486;28;20460;-80
2023/06/27 10:14:04;;;;;;;24.27;22.50;;;;;;;;;;5094610;28;20452;-81
2023/06/27 10:16:32;;;;;;;24.73;22.83;;;;;;;;;;5095797;28;20443;-83
2023/06/27 10:19:02;;;;;;;24.80;23.10;;;;;;;;;;5090926;28;20977;-76
2023/06/27 10:21:32;;;;;;;23.80;22.40;;;;;;;;;;5093240;28;20455;-79
2023/06/27 10:24:01;;;;;;;24.17;22.37;;;;;;;;;;5093889;28;20998;-76
2023/06/27 10:26:29;;;;;;;24.07;22.43;;;;;;;;;;5093493;28;20545;-76
2023/06/27 10:28:56;;;;;;;23.70;22.13;;;;;;;;;;5093426;28;20969;-76
2023/06/27 10:31:39;;;;;;;24.27;22.27;;;;;;;;;;5092896;28;20455;-75
2023/06/27 10:34:07;;;;;;;24.30;22.70;;;;;;;;;;5092665;28;20448;-75
2023/06/27 10:37:01;;;;;;;23.77;21.97;;;;;;;;;;5092814;28;20476;-75
2023/06/27 10:39:29;;;;;;;25.10;23.13;;;;;;;;;;5057365;28;20513;-76
2023/06/27 10:42:01;;;;;;;24.37;22.53;;;;;;;;;;5093582;28;20467;-74
2023/06/27 10:44:28;;;;;;;23.70;22.07;;;;;;;;;;5093754;28;20551;-75
2023/06/27 10:47:10;;;;;;;24.07;22.37;;;;;;;;;;5092916;28;20415;-76
2023/06/27 10:49:38;;;;;;;23.60;21.90;;;;;;;;;;5093448;28;20415;-75
2023/06/27 10:52:05;;;;;;;23.30;21.70;;;;;;;;;;5093309;28;20984;-76
2023/06/27 10:54:33;;;;;;;24.43;22.83;;;;;;;;;;5093469;28;20924;-75
2023/06/27 10:57:00;;;;;;;23.70;22.00;;;;;;;;;;5092909;28;20424;-76
2023/06/27 10:59:27;;;;;;;25.80;22.90;;;;;;;;;;5093518;28;21002;-75
2023/06/27 11:02:00;;;;;;;23.77;22.10;;;;;;;;;;5092815;28;20476;-75
2023/06/27 11:04:27;;;;;;;24.50;22.90;;;;;;;;;;5093408;28;20400;-74
2023/06/27 11:07:01;;;;;;;24.83;23.03;;;;;;;;;;5092638;28;20420;-76
2023/06/27 11:09:29;;;;;;;23.87;22.30;;;;;;;;;;5093261;28;20404;-77
2023/06/27 11:11:57;;;;;;;24.77;22.90;;;;;;;;;;5091948;28;20459;-76
2023/06/27 11:14:34;;;;;;;25.93;24.00;;;;;;;;;;5093213;28;20449;-76
2023/06/27 11:17:03;;;;;;;24.20;22.50;;;;;;;;;;5092486;28;20456;-81
2023/06/27 11:19:30;;;;;;;24.00;22.20;;;;;;;;;;5097981;28;20544;-82
2023/06/27 11:21:57;;;;;;;24.00;22.30;;;;;;;;;;5101193;28;20473;-87
2023/06/27 11:24:26;;;;;;;24.47;22.87;;;;;;;;;;5097331;28;20523;-78
2023/06/27 11:26:53;;;;;;;23.53;21.87;;;;;;;;;;5095350;28;20453;-76
2023/06/27 11:29:20;;;;;;;25.13;23.43;;;;;;;;;;5093249;28;20452;-74
2023/06/27 11:31:47;;;;;;;24.03;22.10;;;;;;;;;;5091753;28;20466;-75
2023/06/27 11:34:16;;;;;;;23.43;21.80;;;;;;;;;;5084760;28;20526;-78
2023/06/27 11:36:43;;;;;;;25.37;23.30;;;;;;;;;;5094295;28;20420;-84
2023/06/27 11:39:11;;;;;;;23.50;22.10;;;;;;;;;;5091833;28;21156;-76
2023/06/27 11:41:41;;;;;;;23.40;21.90;;;;;;;;;;5090134;28;20534;-74
2023/06/27 11:44:09;;;;;;;24.93;22.80;;;;;;;;;;5090600;28;20496;-75
2023/06/27 11:46:37;;;;;;;24.73;23.13;;;;;;;;;;5091017;28;20415;-74
2023/06/27 11:49:04;;;;;;;24.10;21.93;;;;;;;;;;5092013;28;20978;-74
2023/06/27 11:51:39;;;;;;;23.37;21.87;;;;;;;;;;5091806;28;20621;-75
2023/06/27 11:54:07;;;;;;;22.70;21.10;;;;;;;;;;5090612;28;20465;-74
2023/06/27 11:56:34;;;;;;;23.40;21.80;;;;;;;;;;5090640;28;20431;-76
2023/06/27 11:59:03;;;;;;;23.83;22.10;;;;;;;;;;5091608;28;20419;-76
2023/06/27 12:01:33;;;;;;;23.17;21.60;;;;;;;;;;5090895;28;21009;-76
2023/06/27 12:04:00;;;;;;;22.87;21.27;;;;;;;;;;5091805;28;20423;-75
2023/06/27 12:06:28;;;;;;;24.13;22.43;;;;;;;;;;5091831;28;20994;-76
2023/06/27 12:08:56;;;;;;;24.13;22.33;;;;;;;;;;5091345;28;20435;-77
2023/06/27 12:11:32;;;;;;;24.97;23.13;;;;;;;;;;5090241;28;20533;-78
2023/06/27 12:13:59;;;;;;;24.20;22.60;;;;;;;;;;5090954;28;20437;-76
2023/06/27 12:16:29;;;;;;;25.37;23.50;;;;;;;;;;5091462;28;20841;-75
2023/06/27 12:19:03;;;;;;;25.13;23.57;;;;;;;;;;5092396;28;20419;-76
2023/06/27 12:21:30;;;;;;;24.50;22.80;;;;;;;;;;5091419;28;20476;-76
2023/06/27 12:23:57;;;;;;;25.50;23.37;;;;;;;;;;5091747;28;20449;-77
2023/06/27 12:26:24;;;;;;;23.33;21.83;;;;;;;;;;5092481;28;21224;-84
2023/06/27 12:28:58;;;;;;;24.70;22.90;;;;;;;;;;5095035;28;20437;-84
2023/06/27 12:31:25;;;;;;;24.63;23.00;;;;;;;;;;5094333;28;20460;-85
2023/06/27 12:33:53;;;;;;;24.37;22.60;;;;;;;;;;5095214;28;20419;-83
2023/06/27 12:36:21;;;;;;;23.60;22.10;;;;;;;;;;5094409;28;20429;-83
2023/06/27 12:38:49;;;;;;;24.03;22.53;;;;;;;;;;5099646;28;20805;-80
2023/06/27 12:41:16;;;;;;;23.50;21.90;;;;;;;;;;5100828;28;20526;-83
2023/06/27 12:43:43;;;;;;;23.63;22.03;;;;;;;;;;5100236;28;20465;-81
2023/06/27 12:46:10;;;;;;;24.90;23.20;;;;;;;;;;5099240;28;20464;-82
2023/06/27 12:48:37;;;;;;;27.77;25.97;;;;;;;;;;5069436;28;20448;-79
2023/06/27 12:51:06;;;;;;;25.20;23.37;;;;;;;;;;5087338;28;20455;-80
2023/06/27 12:53:33;;;;;;;25.30;23.80;;;;;;;;;;5095597;28;20484;-83
2023/06/27 12:56:02;;;;;;;24.80;23.20;;;;;;;;;;5100990;28;20449;-83
2023/06/27 12:58:29;;;;;;;25.13;23.40;;;;;;;;;;5094013;28;20447;-77
2023/06/27 13:00:56;;;;;;;24.03;22.33;;;;;;;;;;5094183;28;20443;-77
2023/06/27 13:03:23;;;;;;;23.37;21.77;;;;;;;;;;5094862;28;20440;-76
2023/06/27 13:05:51;;;;;;;23.63;22.00;;;;;;;;;;5093312;28;20456;-77
2023/06/27 13:08:19;;;;;;;23.93;22.20;;;;;;;;;;5094273;28;20871;-77
2023/06/27 13:10:46;;;;;;;24.53;23.03;;;;;;;;;;5094464;28;20463;-76
2023/06/27 13:13:13;;;;;;;25.47;23.80;;;;;;;;;;5093816;28;20504;-77
2023/06/27 13:15:40;;;;;;;23.17;21.67;;;;;;;;;;5094367;28;20471;-78
2023/06/27 13:18:07;;;;;;;24.17;22.47;;;;;;;;;;5095537;28;20452;-76
2023/06/27 13:20:34;;;;;;;24.20;22.60;;;;;;;;;;5094228;28;20478;-76
2023/06/27 13:23:02;;;;;;;24.23;22.63;;;;;;;;;;5094237;28;20775;-76
2023/06/27 13:25:31;;;;;;;23.60;22.10;;;;;;;;;;5094785;28;20449;-76
2023/06/27 13:27:58;;;;;;;25.40;23.50;;;;;;;;;;5094618;28;20505;-76
2023/06/27 13:30:25;;;;;;;25.13;23.53;;;;;;;;;;5093785;28;20459;-77
2023/06/27 13:32:52;;;;;;;24.07;22.47;;;;;;;;;;5094551;28;20530;-77
2023/06/27 13:35:22;;;;;;;23.33;21.93;;;;;;;;;;5093893;28;20969;-76
2023/06/27 13:37:49;;;;;;;23.70;22.07;;;;;;;;;;5094206;28;20489;-76
2023/06/27 13:40:16;;;;;;;23.33;21.63;;;;;;;;;;5094580;28;20542;-76
2023/06/27 13:42:44;;;;;;;24.27;22.77;;;;;;;;;;5093983;28;20450;-78
2023/06/27 13:45:11;;;;;;;23.83;22.43;;;;;;;;;;5094364;28;20521;-75
2023/06/27 13:47:38;;;;;;;23.83;22.23;;;;;;;;;;5093571;28;20431;-75
2023/06/27 13:50:06;;;;;;;23.70;22.30;;;;;;;;;;5093753;28;20464;-74
2023/06/27 13:52:33;;;;;;;24.93;23.10;;;;;;;;;;5094243;28;20463;-75
2023/06/27 13:55:00;;;;;;;25.23;23.57;;;;;;;;;;5095223;28;21044;-76
2023/06/27 13:57:28;;;;;;;25.07;23.07;;;;;;;;;;5093978;28;20457;-76
2023/06/27 13:59:56;;;;;;;25.30;23.40;;;;;;;;;;5093282;28;20449;-76
2023/06/27 14:02:23;;;;;;;23.40;22.00;;;;;;;;;;5094184;28;20429;-78
2023/06/27 14:04:50;;;;;;;24.90;23.20;;;;;;;;;;5094491;28;20484;-76
2023/06/27 14:07:17;;;;;;;24.20;22.70;;;;;;;;;;5094039;28;20463;-77
2023/06/27 14:09:44;;;;;;;25.50;23.60;;;;;;;;;;5093647;28;20921;-77
2023/06/27 14:12:13;;;;;;;163.77;146.30;;;;;;;;;;5093056;28;20583;-78
2023/06/27 14:14:40;;;;;;;956.50;880.13;;;;;;;;;;5094417;28;20435;-77
2023/06/27 14:17:08;;;;;;;867.93;807.00;;;;;;;;;;5093621;28;20457;-77
2023/06/27 14:19:35;;;;;;;865.37;807.07;;;;;;;;;;5094128;28;20453;-77